createdAt,value
2024-02-19T00:00:10.654Z,7.30
2024-02-19T00:02:37.368Z,7.30
2024-02-19T00:05:05.598Z,7.30
2024-02-19T00:07:33.211Z,7.30
2024-02-19T00:10:00.813Z,7.30
2024-02-19T00:12:27.563Z,7.30
2024-02-19T00:14:54.327Z,7.30
2024-02-19T00:17:21.217Z,7.30
2024-02-19T00:19:47.974Z,7.30
2024-02-19T00:22:14.815Z,7.30
2024-02-19T00:24:42.927Z,7.30
2024-02-19T00:27:09.589Z,7.30
2024-02-19T00:29:36.294Z,7.30
2024-02-19T00:32:03.914Z,7.30
2024-02-19T00:34:30.703Z,7.30
2024-02-19T00:36:57.803Z,7.30
2024-02-19T00:39:24.633Z,7.30
2024-02-19T00:41:51.793Z,7.30
2024-02-19T00:44:18.513Z,7.30
2024-02-19T00:46:45.257Z,7.30
2024-02-19T00:49:12.000Z,7.30
2024-02-19T00:51:38.798Z,7.30
2024-02-19T00:54:05.529Z,7.30
2024-02-19T00:56:32.214Z,7.30
2024-02-19T00:58:58.846Z,7.30
2024-02-19T01:01:25.616Z,7.30
2024-02-19T01:03:52.505Z,7.20
2024-02-19T01:06:19.277Z,7.20
2024-02-19T01:08:46.603Z,7.20
2024-02-19T01:11:13.277Z,7.20
2024-02-19T01:13:40.970Z,7.20
2024-02-19T01:16:09.678Z,7.20
2024-02-19T01:18:37.186Z,7.20
2024-02-19T01:21:04.576Z,7.20
2024-02-19T01:23:31.424Z,7.20
2024-02-19T01:25:58.056Z,7.20
2024-02-19T01:28:24.818Z,7.20
2024-02-19T01:30:51.524Z,7.20
2024-02-19T01:33:18.159Z,7.20
2024-02-19T01:35:46.180Z,7.20
2024-02-19T01:38:13.086Z,7.20
2024-02-19T01:40:39.856Z,7.20
2024-02-19T01:43:08.197Z,7.20
2024-02-19T01:45:35.036Z,7.10
2024-02-19T01:48:02.706Z,7.10
2024-02-19T01:50:33.103Z,7.10
2024-02-19T01:53:02.488Z,7.10
2024-02-19T01:55:29.649Z,7.10
2024-02-19T01:57:56.949Z,7.00
2024-02-19T02:00:23.781Z,7.00
2024-02-19T02:02:50.525Z,7.00
2024-02-19T02:05:17.210Z,7.00
2024-02-19T02:07:45.657Z,6.90
2024-02-19T02:10:12.406Z,6.90
2024-02-19T02:12:39.210Z,6.90
2024-02-19T02:15:06.126Z,6.90
2024-02-19T02:17:32.881Z,6.80
2024-02-19T02:19:59.996Z,6.80
2024-02-19T02:22:27.192Z,6.80
2024-02-19T02:24:53.918Z,6.80
2024-02-19T02:27:20.631Z,6.70
2024-02-19T02:29:47.481Z,6.70
2024-02-19T02:32:14.236Z,6.70
2024-02-19T02:34:41.076Z,6.70
2024-02-19T02:37:08.007Z,6.70
2024-02-19T02:39:35.170Z,6.70
2024-02-19T02:42:01.856Z,6.70
2024-02-19T02:44:28.552Z,6.70
2024-02-19T02:46:55.203Z,6.70
2024-02-19T02:49:22.014Z,6.70
2024-02-19T02:51:48.852Z,6.60
2024-02-19T02:54:15.563Z,6.70
2024-02-19T02:56:42.292Z,6.60
2024-02-19T02:59:08.969Z,6.70
2024-02-19T03:01:36.030Z,6.70
2024-02-19T03:04:02.837Z,6.70
2024-02-19T03:06:29.600Z,6.70
2024-02-19T03:08:56.347Z,6.60
2024-02-19T03:11:23.203Z,6.60
2024-02-19T03:13:50.408Z,6.60
2024-02-19T03:16:18.721Z,6.60
2024-02-19T03:18:46.341Z,6.60
2024-02-19T03:21:13.928Z,6.60
2024-02-19T03:23:47.228Z,6.60
2024-02-19T03:26:14.073Z,6.60
2024-02-19T03:28:40.988Z,6.60
2024-02-19T03:31:07.980Z,6.50
2024-02-19T03:33:34.778Z,6.60
2024-02-19T03:36:01.463Z,6.60
2024-02-19T03:38:28.693Z,6.60
2024-02-19T03:40:55.342Z,6.60
2024-02-19T03:43:22.065Z,6.60
2024-02-19T03:45:51.680Z,6.60
2024-02-19T03:48:18.514Z,6.60
2024-02-19T03:50:45.200Z,6.60
2024-02-19T03:53:11.945Z,6.60
2024-02-19T03:55:38.683Z,6.60
2024-02-19T03:58:05.440Z,6.60
2024-02-19T04:00:32.142Z,6.60
2024-02-19T04:02:58.847Z,6.60
2024-02-19T04:05:25.485Z,6.60
2024-02-19T04:07:52.121Z,6.60
2024-02-19T04:10:18.893Z,6.60
2024-02-19T04:12:45.663Z,6.60
2024-02-19T04:15:12.668Z,6.60
2024-02-19T04:17:39.439Z,6.60
2024-02-19T04:20:06.575Z,6.60
2024-02-19T04:22:33.220Z,6.60
2024-02-19T04:25:00.367Z,6.60
2024-02-19T04:27:27.111Z,6.60
2024-02-19T04:29:53.795Z,6.60
2024-02-19T04:32:20.439Z,6.50
2024-02-19T04:34:47.171Z,6.50
2024-02-19T04:37:15.317Z,6.50
2024-02-19T04:39:42.854Z,6.50
2024-02-19T04:42:09.606Z,6.40
2024-02-19T04:44:36.348Z,6.30
2024-02-19T04:47:03.157Z,6.20
2024-02-19T04:49:29.830Z,6.10
2024-02-19T04:51:56.596Z,6.10
2024-02-19T04:54:23.304Z,6.10
2024-02-19T04:56:50.065Z,6.00
2024-02-19T04:59:16.770Z,6.00
2024-02-19T05:01:43.518Z,5.90
2024-02-19T05:04:10.655Z,5.90
2024-02-19T05:06:38.010Z,5.80
2024-02-19T05:09:04.818Z,5.80
2024-02-19T05:11:31.548Z,5.80
2024-02-19T05:13:58.313Z,5.80
2024-02-19T05:16:25.163Z,5.70
2024-02-19T05:18:52.035Z,5.70
2024-02-19T05:21:19.317Z,5.70
2024-02-19T05:23:46.078Z,5.70
2024-02-19T05:26:12.723Z,5.70
2024-02-19T05:28:39.421Z,5.70
2024-02-19T05:31:06.963Z,5.70
2024-02-19T05:33:33.735Z,5.70
2024-02-19T05:36:00.478Z,5.70
2024-02-19T05:38:27.321Z,5.60
2024-02-19T05:40:53.979Z,5.60
2024-02-19T05:43:21.257Z,5.60
2024-02-19T05:45:51.107Z,5.60
2024-02-19T05:48:17.998Z,5.60
2024-02-19T05:50:44.765Z,5.50
2024-02-19T05:53:11.421Z,5.50
2024-02-19T05:55:38.117Z,5.50
2024-02-19T05:58:04.878Z,5.50
2024-02-19T06:00:31.608Z,5.50
2024-02-19T06:03:04.374Z,5.40
2024-02-19T06:05:31.197Z,5.50
2024-02-19T06:07:57.852Z,5.40
2024-02-19T06:10:24.544Z,5.40
2024-02-19T06:12:51.993Z,5.40
2024-02-19T06:15:18.719Z,5.40
2024-02-19T06:17:45.508Z,5.40
2024-02-19T06:20:12.290Z,5.40
2024-02-19T06:22:38.958Z,5.30
2024-02-19T06:25:05.667Z,5.30
2024-02-19T06:27:32.449Z,5.20
2024-02-19T06:29:59.090Z,5.20
2024-02-19T06:32:25.818Z,5.10
2024-02-19T06:34:52.682Z,5.10
2024-02-19T06:37:20.079Z,5.10
2024-02-19T06:39:46.853Z,5.00
2024-02-19T06:42:13.625Z,5.00
2024-02-19T06:44:40.339Z,4.90
2024-02-19T06:47:06.990Z,4.90
2024-02-19T06:49:33.967Z,4.80
2024-02-19T06:52:00.807Z,4.80
2024-02-19T06:54:30.688Z,4.80
2024-02-19T06:56:58.569Z,4.70
2024-02-19T06:59:25.269Z,4.70
2024-02-19T07:01:52.397Z,4.70
2024-02-19T07:04:22.097Z,4.70
2024-02-19T07:06:48.970Z,4.60
2024-02-19T07:09:16.177Z,4.60
2024-02-19T07:11:42.929Z,4.60
2024-02-19T07:14:09.607Z,4.60
2024-02-19T07:16:36.328Z,4.50
2024-02-19T07:19:03.106Z,4.60
2024-02-19T07:21:29.829Z,4.50
2024-02-19T07:23:56.507Z,4.50
2024-02-19T07:26:23.247Z,4.50
2024-02-19T07:28:49.881Z,4.50
2024-02-19T07:31:16.796Z,4.40
2024-02-19T07:33:43.918Z,4.40
2024-02-19T07:36:11.185Z,4.40
2024-02-19T07:38:37.808Z,4.40
2024-02-19T07:41:04.482Z,4.50
2024-02-19T07:43:31.302Z,4.40
2024-02-19T07:45:58.159Z,4.40
2024-02-19T07:48:25.085Z,4.40
2024-02-19T07:50:51.758Z,4.50
2024-02-19T07:53:18.449Z,4.50
2024-02-19T07:55:45.150Z,4.50
2024-02-19T07:58:11.953Z,4.50
2024-02-19T08:00:38.858Z,4.50
2024-02-19T08:03:05.762Z,4.50
2024-02-19T08:05:32.605Z,4.50
2024-02-19T08:07:59.429Z,4.50
2024-02-19T08:10:26.297Z,4.50
2024-02-19T08:12:53.215Z,4.50
2024-02-19T08:15:20.027Z,4.60
2024-02-19T08:17:46.852Z,4.60
2024-02-19T08:20:13.607Z,4.60
2024-02-19T08:22:41.914Z,4.60
2024-02-19T08:25:09.840Z,4.60
2024-02-19T08:27:36.579Z,4.60
2024-02-19T08:30:03.937Z,4.60
2024-02-19T08:32:30.597Z,4.60
2024-02-19T08:34:57.398Z,4.60
2024-02-19T08:37:24.172Z,4.60
2024-02-19T08:39:51.000Z,4.60
2024-02-19T08:42:17.677Z,4.60
2024-02-19T08:44:44.399Z,4.60
2024-02-19T08:47:11.088Z,4.60
2024-02-19T08:49:38.896Z,4.60
2024-02-19T08:52:06.063Z,4.60
2024-02-19T08:54:32.991Z,4.60
2024-02-19T08:56:59.673Z,4.70
2024-02-19T08:59:26.817Z,4.70
2024-02-19T09:01:54.342Z,4.70
2024-02-19T09:04:21.468Z,4.70
2024-02-19T09:06:48.366Z,4.70
2024-02-19T09:09:15.030Z,4.60
2024-02-19T09:11:41.756Z,4.70
2024-02-19T09:14:08.563Z,4.70
2024-02-19T09:16:35.305Z,4.70
2024-02-19T09:19:06.756Z,4.70
2024-02-19T09:21:33.732Z,4.80
2024-02-19T09:24:00.400Z,4.80
2024-02-19T09:26:27.056Z,4.80
2024-02-19T09:28:53.786Z,4.80
2024-02-19T09:31:24.350Z,4.90
2024-02-19T09:33:51.486Z,4.90
2024-02-19T09:36:19.219Z,5.00
2024-02-19T09:38:46.607Z,5.00
2024-02-19T09:41:13.293Z,5.00
2024-02-19T09:43:40.370Z,5.00
2024-02-19T09:46:15.094Z,5.10
2024-02-19T09:48:43.236Z,5.10
2024-02-19T09:51:14.412Z,5.20
2024-02-19T09:53:44.248Z,5.20
2024-02-19T09:56:14.767Z,5.20
2024-02-19T09:58:42.218Z,5.20
2024-02-19T10:01:09.015Z,5.20
2024-02-19T10:03:36.024Z,5.20
2024-02-19T10:06:04.139Z,5.30
2024-02-19T10:08:31.761Z,5.30
2024-02-19T10:10:59.056Z,5.40
2024-02-19T10:13:26.190Z,5.40
2024-02-19T10:15:53.080Z,5.50
2024-02-19T10:18:20.415Z,5.50
2024-02-19T10:20:52.195Z,5.60
2024-02-19T10:23:23.361Z,5.60
2024-02-19T10:25:50.518Z,5.60
2024-02-19T10:28:19.559Z,5.80
2024-02-19T10:30:46.316Z,5.80
2024-02-19T10:33:13.189Z,5.90
2024-02-19T10:35:39.893Z,5.90
2024-02-19T10:38:06.609Z,5.90
2024-02-19T10:40:33.503Z,5.90
2024-02-19T10:43:01.137Z,5.90
2024-02-19T10:45:27.945Z,6.00
2024-02-19T10:47:57.612Z,6.00
2024-02-19T10:50:24.449Z,6.00
2024-02-19T10:52:52.413Z,6.10
2024-02-19T10:55:32.123Z,6.10
2024-02-19T10:58:13.297Z,6.20
2024-02-19T11:00:40.087Z,6.30
2024-02-19T11:03:08.992Z,6.30
2024-02-19T11:05:39.443Z,6.40
2024-02-19T11:08:06.516Z,6.40
2024-02-19T11:10:42.942Z,6.50
2024-02-19T11:13:09.838Z,6.50
2024-02-19T11:15:41.298Z,6.60
2024-02-19T11:18:08.880Z,6.60
2024-02-19T11:20:35.597Z,6.60
2024-02-19T11:23:02.400Z,6.70
2024-02-19T11:25:29.178Z,6.80
2024-02-19T11:27:56.008Z,6.80
2024-02-19T11:30:22.760Z,6.70
2024-02-19T11:32:59.163Z,6.70
2024-02-19T11:35:25.890Z,6.60
2024-02-19T11:37:52.588Z,6.60
2024-02-19T11:40:20.138Z,6.60
2024-02-19T11:42:50.138Z,6.60
2024-02-19T11:45:18.182Z,6.50
2024-02-19T11:47:44.892Z,6.60
2024-02-19T11:50:16.505Z,6.60
2024-02-19T11:52:46.658Z,6.60
2024-02-19T11:55:24.041Z,6.70
2024-02-19T11:57:51.520Z,6.70
2024-02-19T12:00:18.725Z,6.80
2024-02-19T12:02:55.064Z,6.80
2024-02-19T12:05:22.035Z,6.90
2024-02-19T12:07:49.142Z,6.90
2024-02-19T12:10:17.099Z,7.00
2024-02-19T12:12:44.358Z,7.10
2024-02-19T12:15:12.644Z,7.20
2024-02-19T12:17:42.829Z,7.20
2024-02-19T12:20:13.292Z,7.20
2024-02-19T12:22:41.657Z,7.30
2024-02-19T12:25:08.887Z,7.30
2024-02-19T12:27:36.068Z,7.60
2024-02-19T12:30:03.241Z,7.70
2024-02-19T12:32:30.292Z,7.80
2024-02-19T12:34:57.275Z,7.90
2024-02-19T12:37:24.301Z,8.00
2024-02-19T12:39:51.244Z,8.10
2024-02-19T12:42:18.140Z,8.00
2024-02-19T12:44:44.832Z,8.10
2024-02-19T12:47:11.581Z,8.10
2024-02-19T12:49:40.037Z,8.20
2024-02-19T12:52:09.564Z,8.30
2024-02-19T12:54:36.497Z,8.50
2024-02-19T12:57:03.316Z,8.60
2024-02-19T12:59:30.065Z,8.60
2024-02-19T13:01:56.810Z,8.70
2024-02-19T13:04:27.258Z,8.80
2024-02-19T13:06:57.071Z,8.80
2024-02-19T13:09:26.033Z,8.80
2024-02-19T13:11:52.824Z,8.70
2024-02-19T13:14:19.535Z,8.70
2024-02-19T13:16:52.101Z,8.80
2024-02-19T13:19:21.798Z,9.00
2024-02-19T13:21:48.594Z,9.20
2024-02-19T13:24:15.440Z,9.30
2024-02-19T13:26:42.118Z,9.50
2024-02-19T13:29:09.034Z,9.50
2024-02-19T13:31:40.521Z,9.60
2024-02-19T13:34:10.965Z,9.50
2024-02-19T13:36:39.245Z,9.60
2024-02-19T13:39:07.452Z,9.60
2024-02-19T13:41:34.242Z,9.50
2024-02-19T13:44:00.928Z,9.40
2024-02-19T13:46:27.782Z,9.30
2024-02-19T13:48:59.578Z,9.30
2024-02-19T13:51:27.504Z,9.30
2024-02-19T13:53:54.263Z,9.30
2024-02-19T13:56:20.975Z,9.40
2024-02-19T13:58:47.663Z,9.50
2024-02-19T14:01:15.331Z,9.40
2024-02-19T14:03:42.475Z,9.40
2024-02-19T14:06:09.369Z,9.40
2024-02-19T14:08:36.036Z,9.40
2024-02-19T14:11:02.826Z,9.40
2024-02-19T14:13:33.082Z,9.30
2024-02-19T14:16:04.140Z,9.40
2024-02-19T14:18:30.873Z,9.30
2024-02-19T14:20:58.125Z,9.30
2024-02-19T14:23:25.216Z,9.30
2024-02-19T14:25:51.873Z,9.40
2024-02-19T14:28:18.820Z,9.50
2024-02-19T14:30:45.641Z,9.50
2024-02-19T14:33:12.337Z,9.40
2024-02-19T14:35:39.180Z,9.40
2024-02-19T14:38:07.778Z,9.30
2024-02-19T14:40:36.537Z,9.20
2024-02-19T14:43:03.336Z,9.20
2024-02-19T14:45:30.018Z,9.10
2024-02-19T14:47:56.834Z,9.10
2024-02-19T14:50:23.698Z,9.10
2024-02-19T14:52:50.726Z,9.10
2024-02-19T14:55:17.561Z,9.10
2024-02-19T14:57:46.123Z,9.00
2024-02-19T15:00:17.113Z,9.00
2024-02-19T15:02:43.794Z,9.00
2024-02-19T15:05:12.446Z,8.90
2024-02-19T15:07:39.452Z,8.80
2024-02-19T15:10:09.179Z,8.80
2024-02-19T15:12:36.929Z,8.70
2024-02-19T15:15:03.997Z,8.60
2024-02-19T15:17:30.716Z,8.60
2024-02-19T15:19:57.935Z,8.50
2024-02-19T15:22:24.697Z,8.50
2024-02-19T15:24:51.400Z,8.40
2024-02-19T15:27:18.985Z,8.40
2024-02-19T15:29:45.655Z,8.40
2024-02-19T15:32:12.384Z,8.40
2024-02-19T15:34:39.116Z,8.40
2024-02-19T15:37:05.941Z,8.40
2024-02-19T15:39:32.687Z,8.40
2024-02-19T15:41:59.344Z,8.40
2024-02-19T15:44:26.001Z,8.30
2024-02-19T15:46:53.295Z,8.30
2024-02-19T15:49:20.792Z,8.30
2024-02-19T15:51:47.560Z,8.30
2024-02-19T15:54:14.250Z,8.30
2024-02-19T15:56:40.951Z,8.30
2024-02-19T15:59:07.667Z,8.20
2024-02-19T16:01:34.460Z,8.20
2024-02-19T16:04:01.637Z,8.20
2024-02-19T16:06:29.818Z,8.20
2024-02-19T16:08:57.571Z,8.10
2024-02-19T16:11:24.433Z,8.10
2024-02-19T16:13:51.903Z,8.10
2024-02-19T16:16:19.589Z,8.10
2024-02-19T16:18:46.878Z,8.10
2024-02-19T16:21:14.442Z,8.10
2024-02-19T16:23:42.492Z,8.10
2024-02-19T16:26:11.260Z,8.10
2024-02-19T16:28:41.986Z,8.10
2024-02-19T16:31:10.633Z,8.10
2024-02-19T16:33:38.533Z,8.00
2024-02-19T16:36:07.439Z,7.90
2024-02-19T16:38:38.820Z,7.90
2024-02-19T16:41:07.023Z,7.90
2024-02-19T16:43:35.515Z,7.90
2024-02-19T16:46:05.705Z,7.90
2024-02-19T16:48:38.135Z,7.90
2024-02-19T16:51:10.050Z,7.90
2024-02-19T16:53:36.705Z,7.90
2024-02-19T16:56:03.738Z,7.90
2024-02-19T16:58:33.570Z,7.90
2024-02-19T17:01:03.306Z,7.90
2024-02-19T17:03:30.612Z,7.90
2024-02-19T17:05:57.774Z,7.90
2024-02-19T17:08:28.393Z,7.90
2024-02-19T17:10:58.598Z,7.90
2024-02-19T17:13:25.370Z,7.90
2024-02-19T17:15:52.099Z,7.90
2024-02-19T17:18:19.201Z,7.80
2024-02-19T17:20:46.048Z,7.90
2024-02-19T17:23:17.983Z,7.90
2024-02-19T17:25:46.654Z,7.80
2024-02-19T17:28:13.535Z,7.90
2024-02-19T17:30:42.237Z,7.90
2024-02-19T17:33:08.930Z,7.90
2024-02-19T17:35:39.611Z,7.90
2024-02-19T17:38:08.039Z,7.90
2024-02-19T17:40:35.027Z,7.90
2024-02-19T17:43:01.935Z,7.90
2024-02-19T17:45:28.660Z,7.90
2024-02-19T17:47:55.492Z,7.80
2024-02-19T17:50:22.290Z,7.80
2024-02-19T17:52:49.058Z,7.80
2024-02-19T17:55:17.183Z,7.70
2024-02-19T17:57:44.439Z,7.70
2024-02-19T18:00:12.225Z,7.70
2024-02-19T18:02:39.130Z,7.60
2024-02-19T18:05:05.861Z,7.60
2024-02-19T18:07:36.023Z,7.50
2024-02-19T18:10:04.851Z,7.50
2024-02-19T18:12:32.056Z,7.50
2024-02-19T18:14:59.925Z,7.50
2024-02-19T18:17:27.814Z,7.50
2024-02-19T18:19:55.466Z,7.50
2024-02-19T18:22:22.996Z,7.50
2024-02-19T18:24:51.884Z,7.40
2024-02-19T18:27:19.437Z,7.40
2024-02-19T18:29:46.279Z,7.40
2024-02-19T18:32:22.345Z,7.40
2024-02-19T18:34:52.214Z,7.40
2024-02-19T18:37:22.439Z,7.40
2024-02-19T18:39:50.523Z,7.50
2024-02-19T18:42:17.269Z,7.50
2024-02-19T18:44:44.291Z,7.50
2024-02-19T18:47:10.904Z,7.50
2024-02-19T18:49:40.716Z,7.50
2024-02-19T18:52:07.596Z,7.50
2024-02-19T18:54:34.936Z,7.40
2024-02-19T18:57:02.066Z,7.40
2024-02-19T18:59:31.633Z,7.30
2024-02-19T19:01:59.067Z,7.20
2024-02-19T19:04:25.970Z,7.10
2024-02-19T19:06:52.901Z,7.00
2024-02-19T19:09:19.570Z,7.00
2024-02-19T19:11:46.258Z,6.90
2024-02-19T19:14:15.393Z,6.80
2024-02-19T19:16:42.775Z,6.80
2024-02-19T19:19:09.755Z,6.70
2024-02-19T19:21:39.645Z,6.70
2024-02-19T19:24:09.665Z,6.70
2024-02-19T19:26:37.598Z,6.60
2024-02-19T19:29:04.601Z,6.60
2024-02-19T19:31:32.974Z,6.60
2024-02-19T19:34:00.922Z,6.60
2024-02-19T19:36:27.961Z,6.50
2024-02-19T19:38:54.804Z,6.50
2024-02-19T19:41:21.466Z,6.50
2024-02-19T19:43:50.647Z,6.50
2024-02-19T19:46:18.126Z,6.60
2024-02-19T19:48:46.328Z,6.60
2024-02-19T19:51:13.228Z,6.60
2024-02-19T19:53:39.930Z,6.50
2024-02-19T19:56:08.043Z,6.50
2024-02-19T19:58:37.060Z,6.50
2024-02-19T20:01:05.431Z,6.40
2024-02-19T20:03:32.247Z,6.40
2024-02-19T20:05:59.123Z,6.30
2024-02-19T20:08:26.695Z,6.30
2024-02-19T20:10:54.770Z,6.30
2024-02-19T20:13:21.696Z,6.30
2024-02-19T20:15:48.493Z,6.20
2024-02-19T20:18:15.564Z,6.20
2024-02-19T20:20:42.631Z,6.20
2024-02-19T20:23:09.423Z,6.20
2024-02-19T20:25:36.232Z,6.20
2024-02-19T20:28:04.947Z,6.20
2024-02-19T20:30:32.089Z,6.10
2024-02-19T20:32:58.788Z,6.10
2024-02-19T20:35:27.030Z,6.10
2024-02-19T20:37:53.880Z,6.10
2024-02-19T20:40:20.689Z,6.10
2024-02-19T20:42:53.791Z,6.10
2024-02-19T20:45:21.511Z,6.00
2024-02-19T20:47:48.304Z,5.90
2024-02-19T20:50:15.431Z,5.90
2024-02-19T20:52:45.719Z,5.90
2024-02-19T20:55:12.795Z,5.90
2024-02-19T20:57:39.568Z,5.80
2024-02-19T21:00:07.797Z,5.80
2024-02-19T21:02:34.634Z,5.80
2024-02-19T21:05:01.703Z,5.70
2024-02-19T21:07:38.316Z,5.70
2024-02-19T21:10:05.610Z,5.70
2024-02-19T21:12:32.350Z,5.70
2024-02-19T21:14:59.058Z,5.70
2024-02-19T21:20:15.352Z,5.70
2024-02-19T21:22:42.361Z,5.80
2024-02-19T21:25:09.973Z,5.90
2024-02-19T21:27:36.656Z,5.90
2024-02-19T21:30:05.058Z,5.90
2024-02-19T21:32:31.895Z,6.00
2024-02-19T21:35:01.056Z,6.00
2024-02-19T21:37:30.498Z,6.10
2024-02-19T21:39:57.616Z,6.10
2024-02-19T21:42:25.984Z,6.20
2024-02-19T21:44:54.629Z,6.20
2024-02-19T21:47:21.311Z,6.30
2024-02-19T21:49:49.024Z,6.30
2024-02-19T21:52:15.931Z,6.30
2024-02-19T21:54:44.600Z,6.30
2024-02-19T21:57:11.281Z,6.40
2024-02-19T21:59:38.400Z,6.40
2024-02-19T22:02:05.210Z,6.40
2024-02-19T22:04:32.055Z,6.40
2024-02-19T22:06:58.921Z,6.40
2024-02-19T22:09:25.629Z,6.50
2024-02-19T22:11:52.341Z,6.50
2024-02-19T22:14:18.984Z,6.60
2024-02-19T22:16:45.667Z,6.60
2024-02-19T22:19:12.516Z,6.60
2024-02-19T22:21:39.406Z,6.70
2024-02-19T22:24:06.583Z,6.70
2024-02-19T22:26:33.257Z,6.70
2024-02-19T22:28:59.930Z,6.80
2024-02-19T22:31:26.756Z,6.80
2024-02-19T22:33:53.864Z,6.80
2024-02-19T22:36:21.291Z,6.80
2024-02-19T22:38:48.064Z,6.80
2024-02-19T22:41:14.711Z,6.90
2024-02-19T22:43:41.513Z,6.90
2024-02-19T22:46:08.204Z,6.90
2024-02-19T22:48:35.062Z,6.90
2024-02-19T22:51:01.821Z,6.90
2024-02-19T22:53:28.491Z,7.00
2024-02-19T22:55:55.280Z,7.00
2024-02-19T22:58:31.344Z,7.00
2024-02-19T23:01:01.816Z,7.00
2024-02-19T23:03:28.868Z,7.00
2024-02-19T23:05:55.822Z,7.00
2024-02-19T23:08:23.274Z,7.00
2024-02-19T23:10:51.410Z,7.00
2024-02-19T23:13:18.510Z,7.00
2024-02-19T23:15:45.229Z,7.00
2024-02-19T23:18:12.308Z,7.00
2024-02-19T23:20:39.184Z,7.00
2024-02-19T23:23:05.889Z,7.00
2024-02-19T23:25:32.664Z,7.00
2024-02-19T23:27:59.480Z,7.00
2024-02-19T23:30:26.152Z,7.00
2024-02-19T23:32:52.900Z,7.00
2024-02-19T23:35:19.597Z,7.00
2024-02-19T23:37:46.942Z,7.00
2024-02-19T23:40:17.635Z,7.00
2024-02-19T23:42:45.308Z,7.00
2024-02-19T23:45:12.575Z,7.00
2024-02-19T23:47:39.769Z,7.00
2024-02-19T23:50:07.108Z,7.00
2024-02-19T23:52:33.976Z,6.90
2024-02-19T23:55:00.904Z,7.00
2024-02-19T23:57:27.657Z,6.90
2024-02-19T23:59:54.383Z,6.90
